WetterOnline ( https://www.wetteronline.ch )

Wetter aktuell Seehausen (Altmark)

Aktuelles Wetter: Seehausen (23m)

6-stündlich | Neueste Meldungen
Ortszeit Temperatur Wetter
Mo, 06.07. 2:00 17.6° C wolkig
So, 05.07. 20:00 21.7° C fast wolkenlos
So, 05.07. 14:00 24.1° C bedeckt
So, 05.07. 8:00 20.7° C bedeckt
So, 05.07. 2:00 20.0° C bedeckt
Sa, 04.07. 20:00 21.5° C bedeckt
Sa, 04.07. 14:00 21.5° C bedeckt
Sa, 04.07. 8:00 18.1° C bedeckt
Ortszeit Temperatur Wetter
Mo, 06.07. 2:00 17.6° C wolkig
Mo, 06.07. 1:50 17.6° C wolkig
Mo, 06.07. 1:40 17.8° C wolkig
Mo, 06.07. 1:30 17.1° C wolkig
Mo, 06.07. 1:20 17.1° C wolkig
Mo, 06.07. 1:10 17.1° C leicht bewölkt
Mo, 06.07. 1:00 18.0° C leicht bewölkt
Mo, 06.07. 0:30 18.7° C wolkig
Mo, 06.07. 0:00 18.9° C wolkig
So, 05.07. 23:30 19.5° C fast wolkenlos
So, 05.07. 23:00 20.0° C wolkenlos
Ortszeit Relative Feuchte Sichtweite
Mo, 06.07. 2:00 72% 60 km
So, 05.07. 20:00 70% >70 km
So, 05.07. 14:00 62% >70 km
So, 05.07. 8:00 76% 65 km
So, 05.07. 2:00 73% 65 km
Sa, 04.07. 20:00 61% 65 km
Sa, 04.07. 14:00 54% 60 km
Sa, 04.07. 8:00 64% 50 km
Ortszeit Relative Feuchte Sichtweite
Mo, 06.07. 2:00 72% 60 km
Mo, 06.07. 1:50 72% -
Mo, 06.07. 1:40 71% -
Mo, 06.07. 1:30 75% 60 km
Mo, 06.07. 1:20 75% -
Mo, 06.07. 1:10 75% -
Mo, 06.07. 1:00 71% 50 km
Mo, 06.07. 0:30 69% >70 km
Mo, 06.07. 0:00 70% 65 km
So, 05.07. 23:30 69% >70 km
So, 05.07. 23:00 67% 65 km
Ortszeit Niederschlagsmenge Niederschlagsart
Mo, 06.07. 2:00 0.0 l/m2 in 6 Std. -
So, 05.07. 20:00 0.1 l/m2 in 12 Std. Regen
So, 05.07. 14:00 0.1 l/m2 in 6 Std. Regen
So, 05.07. 8:00 0.1 l/m2 in 12 Std. Regen
So, 05.07. 2:00 0.1 l/m2 in 6 Std. Regen
Sa, 04.07. 20:00 0.1 l/m2 in 12 Std. Regen
Sa, 04.07. 14:00 0.1 l/m2 in 6 Std. Regen
Sa, 04.07. 8:00 0.0 l/m2 in 12 Std. -
Ortszeit Niederschlagsmenge Niederschlagsart
Mo, 06.07. 2:00 0.0 l/m2 in 1 Std. -
Mo, 06.07. 1:50 keine Meldung -
Mo, 06.07. 1:40 keine Meldung -
Mo, 06.07. 1:30 0.0 l/m2 in 1 Std. -
Mo, 06.07. 1:20 keine Meldung -
Mo, 06.07. 1:10 keine Meldung -
Mo, 06.07. 1:00 0.0 l/m2 in 1 Std. -
Mo, 06.07. 0:30 0.0 l/m2 in 1 Std. -
Mo, 06.07. 0:00 0.0 l/m2 in 1 Std. -
So, 05.07. 23:30 0.0 l/m2 in 1 Std. -
So, 05.07. 23:00 0.0 l/m2 in 1 Std. -
Ortszeit Stärke Spitze Richtung
km/h Bft. km/h Grad Sektor
Mo, 06.07. 2:00 13 3 30 240° SW
So, 05.07. 20:00 20 4 54 270° W
So, 05.07. 14:00 25 4 50 240° SW
So, 05.07. 8:00 19 3 37 220° SW
So, 05.07. 2:00 22 4 50 230° SW
Sa, 04.07. 20:00 22 4 50 240° SW
Sa, 04.07. 14:00 22 4 54 220° SW
Sa, 04.07. 8:00 19 3 31 230° SW
Ortszeit Stärke Spitze Richtung
km/h Bft. km/h Grad Sektor
Mo, 06.07. 2:00 13 3 20 240° SW
Mo, 06.07. 1:50 13 3 - 240° SW
Mo, 06.07. 1:40 13 3 - 240° SW
Mo, 06.07. 1:30 11 2 18 250° W
Mo, 06.07. 1:20 11 2 - 250° W
Mo, 06.07. 1:10 11 2 - 250° W
Mo, 06.07. 1:00 11 2 25 250° W
Mo, 06.07. 0:30 15 3 24 250° W
Mo, 06.07. 0:00 11 2 22 230° SW
So, 05.07. 23:30 13 3 20 230° SW
So, 05.07. 23:00 13 3 30 230° SW
Ortszeit Untergrenze Bedeckung Gattung
total tief tief mittel hoch
Mo, 06.07. 2:00 1800 m 8/8 3/8 - - -
So, 05.07. 20:00 750 m 1/8 1/8 - - -
So, 05.07. 14:00 1080 m 8/8 8/8 - - -
So, 05.07. 8:00 630 m 8/8 8/8 - - -
So, 05.07. 2:00 780 m 8/8 8/8 - - -
Sa, 04.07. 20:00 1110 m 8/8 8/8 - - -
Sa, 04.07. 14:00 1170 m 8/8 8/8 - - -
Sa, 04.07. 8:00 4500 m 8/8 8/8 - - -
Ortszeit Bedeckungsgrad in Achtel und Wolkenuntergrenze
Mo, 06.07. 2:00 3(1800m) 8(6900m)
Mo, 06.07. 1:50 3(1800m) 8(6900m)
Mo, 06.07. 1:40 2(1800m) 8(6900m)
Mo, 06.07. 1:30 6(6900m)
Mo, 06.07. 1:20 6(6900m)
Mo, 06.07. 1:10 3(6900m)
Mo, 06.07. 1:00 2(1800m)
Mo, 06.07. 0:30 5(1500m) 6(2400m)
Mo, 06.07. 0:00 1(1800m) 4(2400m) 6(2700m)
So, 05.07. 23:30 1(2400m)
So, 05.07. 23:00 keine Wolken
Ortszeit Luftdruck NN (hPa) Tendenz (hPa in 3 Std.)
Mo, 06.07. 2:00 1008 0,0
So, 05.07. 20:00 1008 - 0,5
So, 05.07. 14:00 1008 - 0,5
So, 05.07. 8:00 1009 - 0,9
So, 05.07. 2:00 1011 - 1,2
Sa, 04.07. 20:00 1012 - 0,2
Sa, 04.07. 14:00 1013 - 1,0
Sa, 04.07. 8:00 1014 - 0,5
Ortszeit Luftdruck NN (hPa) Tendenz (hPa in 3 Std.)
Mo, 06.07. 2:00 1008 0,0
Mo, 06.07. 1:50 1008 keine Meldung
Mo, 06.07. 1:40 1008 keine Meldung
Mo, 06.07. 1:30 1008 - 0,5
Mo, 06.07. 1:20 1008 keine Meldung
Mo, 06.07. 1:10 1008 keine Meldung
Mo, 06.07. 1:00 1008 - 0,2
Mo, 06.07. 0:30 1008 + 0,2
Mo, 06.07. 0:00 1008 0,0
So, 05.07. 23:30 1008 + 0,1
So, 05.07. 23:00 1008 0,0
Ortszeit Schneehöhe (cm)
Mo, 06.07. 2:00 -
So, 05.07. 20:00 -
So, 05.07. 14:00 -
So, 05.07. 8:00 -
So, 05.07. 2:00 -
Sa, 04.07. 20:00 -
Sa, 04.07. 14:00 -
Sa, 04.07. 8:00 -
Ortszeit Schneehöhe (cm)
Mo, 06.07. 2:00 -
Mo, 06.07. 1:50 -
Mo, 06.07. 1:40 -
Mo, 06.07. 1:30 -
Mo, 06.07. 1:20 -
Mo, 06.07. 1:10 -
Mo, 06.07. 1:00 -
Mo, 06.07. 0:30 -
Mo, 06.07. 0:00 -
So, 05.07. 23:30 -
So, 05.07. 23:00 -
Link zu dieser Seite / Seite empfehlen

Das Wetter in ...